Wetterdaten: Woche 12.10.20 - 18.10.20 (KW42)
Datum Zeit Temp. Aussen Temp. o. S. Temp +5cm Feuchte Auss Luftdruck Regen Sonnenschein Regendauer Solar Windben Empfang
12.10.2020 00:00 8,5 C 7,3 C 7,4 C 97 % 1021,1 hPa 0,0 l/m 0,00 h 0,00 h 0 W/m 0,2 km/h (0 Bft) 96,59 %
12.10.2020 01:00 8,5 C 7,8 C 7,9 C 97 % 1020,9 hPa 0,0 l/m 0,00 h 0,00 h 0 W/m 3,8 km/h (1 Bft) 98,30 %
12.10.2020 02:00 8,5 C 7,5 C 7,7 C 97 % 1021,0 hPa 0,0 l/m 0,00 h 0,00 h 0 W/m 3,3 km/h (1 Bft) 98,15 %
12.10.2020 03:00 8,3 C 7,1 C 7,3 C 97 % 1021,0 hPa 0,0 l/m 0,00 h 0,00 h 0 W/m 2,6 km/h (1 Bft) 93,00 %
12.10.2020 04:00 8,1 C 7,1 C 7,1 C 98 % 1020,8 hPa 0,0 l/m 0,00 h 0,00 h 0 W/m 0,9 km/h (0 Bft) 99,64 %
12.10.2020 05:00 8,2 C 7,2 C 7,2 C 98 % 1020,9 hPa 0,0 l/m 0,00 h 0,00 h 0 W/m 1,2 km/h (1 Bft) 98,79 %
12.10.2020 06:00 8,3 C 7,8 C 7,7 C 98 % 1021,0 hPa 0,0 l/m 0,00 h 0,00 h 0 W/m 2,1 km/h (1 Bft) 95,15 %
12.10.2020 07:00 8,4 C 7,6 C 7,6 C 98 % 1021,0 hPa 0,0 l/m 0,00 h 0,00 h 0 W/m 1,7 km/h (1 Bft) 98,24 %
12.10.2020 08:00 8,2 C 7,2 C 7,2 C 98 % 1021,0 hPa 0,0 l/m 0,00 h 0,00 h 17 W/m 0,4 km/h (0 Bft) 94,63 %
12.10.2020 09:00 8,2 C 8,5 C 7,6 C 98 % 1021,1 hPa 0,0 l/m 0,07 h 0,00 h 63 W/m 2,6 km/h (1 Bft) 97,43 %
12.10.2020 10:00 9,7 C 13,1 C 9,5 C 99 % 1021,2 hPa 0,0 l/m 0,67 h 0,00 h 214 W/m 1,6 km/h (1 Bft) 99,48 %
12.10.2020 11:00 11,7 C 15,9 C 10,0 C 95 % 1021,0 hPa 0,0 l/m 1,00 h 0,00 h 337 W/m 2,9 km/h (1 Bft) 97,05 %
12.10.2020 12:00 13,6 C 15,4 C 10,2 C 86 % 1020,7 hPa 0,0 l/m 0,58 h 0,00 h 248 W/m 5,5 km/h (1 Bft) 97,93 %
12.10.2020 13:00 14,1 C 16,2 C 13,3 C 83 % 1020,3 hPa 0,0 l/m 0,27 h 0,00 h 290 W/m 6,3 km/h (2 Bft) 93,55 %
12.10.2020 14:00 14,8 C 17,4 C 13,2 C 78 % 1019,8 hPa 0,0 l/m 0,43 h 0,00 h 322 W/m 5,7 km/h (1 Bft) 96,82 %
12.10.2020 15:00 13,9 C 12,9 C 12,4 C 78 % 1019,3 hPa 0,0 l/m 0,08 h 0,00 h 107 W/m 5,0 km/h (1 Bft) 93,02 %
12.10.2020 16:00 12,0 C 11,2 C 11,7 C 84 % 1018,8 hPa 0,0 l/m 0,00 h 0,00 h 63 W/m 1,8 km/h (1 Bft) 97,49 %
12.10.2020 17:00 11,8 C 11,6 C 11,8 C 86 % 1018,4 hPa 0,0 l/m 0,33 h 0,00 h 82 W/m 0,9 km/h (0 Bft) 95,18 %
12.10.2020 18:00 11,5 C 10,0 C 10,6 C 86 % 1018,2 hPa 0,0 l/m 0,00 h 0,00 h 19 W/m 0,0 km/h (0 Bft) 96,75 %
12.10.2020 19:00 10,3 C 7,7 C 9,1 C 88 % 1018,2 hPa 0,0 l/m 0,00 h 0,00 h 0 W/m 0,0 km/h (0 Bft) 95,80 %
12.10.2020 20:00 9,0 C 7,0 C 8,6 C 91 % 1018,0 hPa 0,0 l/m 0,00 h 0,00 h 0 W/m 0,0 km/h (0 Bft) 99,22 %
12.10.2020 21:00 8,4 C 7,5 C 9,1 C 93 % 1017,7 hPa 0,0 l/m 0,00 h 0,00 h 0 W/m 0,0 km/h (0 Bft) 96,87 %
12.10.2020 22:00 8,7 C 8,2 C 10,0 C 95 % 1017,5 hPa 0,0 l/m 0,00 h 0,00 h 0 W/m 0,0 km/h (0 Bft) 98,43 %
12.10.2020 23:00 8,6 C 7,6 C 9,6 C 94 % 1017,1 hPa 0,0 l/m 0,00 h 0,00 h 0 W/m 0,7 km/h (0 Bft) 95,18 %
13.10.2020 00:00 8,3 C 7,3 C 9,4 C 95 % 1016,7 hPa 0,0 l/m 0,00 h 0,00 h 0 W/m 7,2 km/h (2 Bft) 96,90 %
13.10.2020 01:00 8,2 C 7,2 C 9,4 C 95 % 1016,1 hPa 0,0 l/m 0,00 h 0,00 h 0 W/m 2,6 km/h (1 Bft) 98,43 %
13.10.2020 02:00 7,8 C 6,7 C 9,3 C 96 % 1015,3 hPa 0,0 l/m 0,00 h 0,00 h 0 W/m 6,5 km/h (2 Bft) 97,93 %
13.10.2020 03:00 7,4 C 6,4 C 8,9 C 96 % 1014,7 hPa 0,0 l/m 0,00 h 0,00 h 0 W/m 5,5 km/h (1 Bft) 97,95 %
13.10.2020 04:00 7,0 C 6,1 C 8,9 C 96 % 1014,3 hPa 0,0 l/m 0,00 h 0,00 h 0 W/m 8,1 km/h (2 Bft) 95,48 %
13.10.2020 05:00 6,8 C 6,1 C 8,9 C 97 % 1013,9 hPa 0,0 l/m 0,00 h 0,00 h 0 W/m 8,9 km/h (2 Bft) 98,36 %
13.10.2020 06:00 6,6 C 5,6 C 8,9 C 97 % 1013,7 hPa 0,0 l/m 0,00 h 0,00 h 0 W/m 11,4 km/h (2 Bft) 96,92 %
13.10.2020 07:00 6,4 C 5,6 C 8,8 C 97 % 1013,6 hPa 0,0 l/m 0,00 h 0,00 h 0 W/m 12,9 km/h (3 Bft) 94,75 %
13.10.2020 08:00 6,2 C 5,7 C 8,7 C 98 % 1013,6 hPa 0,0 l/m 0,00 h 0,00 h 18 W/m 13,3 km/h (3 Bft) 97,28 %
13.10.2020 09:00 6,6 C 7,0 C 9,8 C 98 % 1013,7 hPa 0,0 l/m 0,00 h 0,00 h 84 W/m 13,8 km/h (3 Bft) 95,66 %
13.10.2020 10:00 7,7 C 9,1 C 11,2 C 98 % 1013,7 hPa 0,0 l/m 0,40 h 0,00 h 166 W/m 14,6 km/h (3 Bft) 95,87 %
13.10.2020 11:00 9,2 C 11,8 C 12,5 C 96 % 1013,6 hPa 0,0 l/m 1,00 h 0,00 h 309 W/m 18,8 km/h (3 Bft) 97,93 %
13.10.2020 12:00 11,1 C 14,7 C 13,6 C 88 % 1013,3 hPa 0,0 l/m 1,00 h 0,00 h 393 W/m 16,3 km/h (3 Bft) 97,97 %
13.10.2020 13:00 12,4 C 14,4 C 14,6 C 82 % 1013,0 hPa 0,0 l/m 1,00 h 0,00 h 325 W/m 13,2 km/h (3 Bft) 96,88 %
13.10.2020 14:00 13,0 C 14,3 C 14,8 C 79 % 1012,7 hPa 0,0 l/m 0,87 h 0,00 h 260 W/m 13,7 km/h (3 Bft) 97,00 %
13.10.2020 15:00 13,4 C 14,6 C 14,6 C 77 % 1012,7 hPa 0,0 l/m 0,93 h 0,00 h 258 W/m 16,7 km/h (3 Bft) 99,37 %
13.10.2020 16:00 13,3 C 13,2 C 13,6 C 77 % 1012,7 hPa 0,0 l/m 0,40 h 0,00 h 149 W/m 12,8 km/h (3 Bft) 95,49 %
13.10.2020 17:00 12,2 C 11,4 C 12,4 C 78 % 1013,1 hPa 0,0 l/m 0,00 h 0,00 h 72 W/m 14,5 km/h (3 Bft) 98,29 %
13.10.2020 18:00 10,9 C 9,5 C 11,1 C 81 % 1013,6 hPa 0,0 l/m 0,03 h 0,00 h 19 W/m 6,7 km/h (2 Bft) 99,19 %
13.10.2020 19:00 9,6 C 7,2 C 9,2 C 84 % 1013,9 hPa 0,0 l/m 0,00 h 0,00 h 0 W/m 0,0 km/h (0 Bft) 95,76 %
13.10.2020 20:00 7,9 C 5,4 C 7,3 C 86 % 1014,4 hPa 0,0 l/m 0,00 h 0,00 h 0 W/m 0,0 km/h (0 Bft) 96,43 %
13.10.2020 21:00 6,8 C 4,9 C 6,9 C 89 % 1014,8 hPa 0,0 l/m 0,00 h 0,00 h 0 W/m 0,0 km/h (0 Bft) 97,36 %
13.10.2020 22:00 6,5 C 5,5 C 7,4 C 92 % 1015,1 hPa 0,0 l/m 0,00 h 0,00 h 0 W/m 0,0 km/h (0 Bft) 97,45 %
13.10.2020 23:00 6,1 C 4,5 C 6,8 C 93 % 1015,4 hPa 0,0 l/m 0,00 h 0,00 h 0 W/m 0,0 km/h (0 Bft) 96,35 %
14.10.2020 00:00 5,6 C 4,5 C 6,8 C 94 % 1015,6 hPa 0,0 l/m 0,00 h 0,00 h 0 W/m 0,0 km/h (0 Bft) 99,72 %
14.10.2020 01:00 5,8 C 5,0 C 7,3 C 95 % 1015,7 hPa 0,0 l/m 0,00 h 0,00 h 0 W/m 0,0 km/h (0 Bft) 93,84 %
14.10.2020 02:00 6,2 C 5,5 C 7,9 C 96 % 1016,2 hPa 0,0 l/m 0,00 h 0,00 h 0 W/m 1,5 km/h (1 Bft) 97,36 %
14.10.2020 03:00 6,1 C 5,1 C 7,7 C 97 % 1016,4 hPa 0,0 l/m 0,00 h 0,00 h 0 W/m 2,0 km/h (1 Bft) 98,58 %
14.10.2020 04:00 5,7 C 4,6 C 7,2 C 97 % 1016,4 hPa 0,0 l/m 0,00 h 0,00 h 0 W/m 0,1 km/h (0 Bft) 98,66 %
14.10.2020 05:00 5,7 C 5,4 C 7,9 C 97 % 1016,3 hPa 0,0 l/m 0,00 h 0,00 h 0 W/m 1,2 km/h (1 Bft) 96,65 %
14.10.2020 06:00 6,1 C 5,6 C 8,2 C 97 % 1016,5 hPa 0,0 l/m 0,00 h 0,00 h 0 W/m 0,4 km/h (0 Bft) 96,98 %
14.10.2020 07:00 6,3 C 5,7 C 8,4 C 98 % 1016,8 hPa 0,0 l/m 0,00 h 0,00 h 0 W/m 0,6 km/h (0 Bft) 98,15 %
14.10.2020 08:00 6,6 C 6,4 C 9,1 C 98 % 1017,2 hPa 0,0 l/m 0,00 h 0,00 h 16 W/m 0,4 km/h (0 Bft) 91,71 %
14.10.2020 09:00 7,5 C 7,9 C 10,5 C 99 % 1017,7 hPa 0,0 l/m 0,00 h 0,00 h 47 W/m 1,6 km/h (1 Bft) 97,87 %
14.10.2020 10:00 8,9 C 9,2 C 12,3 C 97 % 1017,9 hPa 0,0 l/m 0,00 h 0,00 h 87 W/m 1,0 km/h (0 Bft) 97,95 %
14.10.2020 11:00 10,2 C 10,8 C 11,2 C 95 % 1017,9 hPa 0,0 l/m 0,00 h 0,00 h 138 W/m 2,0 km/h (1 Bft) 97,65 %
14.10.2020 12:00 11,2 C 12,7 C 10,9 C 93 % 1017,7 hPa 0,0 l/m 0,37 h 0,00 h 229 W/m 3,2 km/h (1 Bft) 97,66 %
14.10.2020 13:00 12,7 C 13,6 C 11,8 C 85 % 1017,5 hPa 0,0 l/m 0,47 h 0,00 h 240 W/m 7,5 km/h (2 Bft) 98,02 %
14.10.2020 14:00 12,8 C 12,6 C 11,6 C 79 % 1017,4 hPa 0,0 l/m 0,00 h 0,00 h 181 W/m 7,5 km/h (2 Bft) 98,93 %
14.10.2020 15:00 12,5 C 11,7 C 10,8 C 78 % 1017,1 hPa 0,0 l/m 0,00 h 0,00 h 123 W/m 9,6 km/h (2 Bft) 94,72 %
14.10.2020 16:00 12,1 C 11,0 C 10,2 C 75 % 1017,2 hPa 0,0 l/m 0,00 h 0,00 h 85 W/m 7,3 km/h (2 Bft) 98,95 %
14.10.2020 17:00 10,7 C 10,0 C 9,2 C 80 % 1017,4 hPa 0,0 l/m 0,00 h 0,00 h 38 W/m 5,1 km/h (1 Bft) 97,99 %
14.10.2020 18:00 10,1 C 9,3 C 8,4 C 81 % 1017,6 hPa 0,0 l/m 0,00 h 0,00 h 10 W/m 4,7 km/h (1 Bft) 96,57 %
14.10.2020 19:00 9,7 C 8,9 C 8,2 C 83 % 1018,0 hPa 0,0 l/m 0,00 h 0,00 h 0 W/m 3,4 km/h (1 Bft) 97,60 %
14.10.2020 20:00 9,4 C 8,4 C 7,8 C 85 % 1018,2 hPa 0,0 l/m 0,00 h 0,00 h 0 W/m 1,9 km/h (1 Bft) 97,52 %
14.10.2020 21:00 9,1 C 8,3 C 7,8 C 87 % 1018,2 hPa 0,0 l/m 0,00 h 0,00 h 0 W/m 4,3 km/h (1 Bft) 97,86 %
14.10.2020 22:00 9,0 C 8,2 C 7,7 C 88 % 1018,3 hPa 0,0 l/m 0,00 h 0,00 h 0 W/m 3,7 km/h (1 Bft) 97,97 %
14.10.2020 23:00 8,7 C 7,8 C 7,2 C 89 % 1018,5 hPa 0,0 l/m 0,00 h 0,00 h 0 W/m 1,8 km/h (1 Bft) 94,11 %
15.10.2020 00:00 8,6 C 7,4 C 7,0 C 91 % 1018,4 hPa 0,2 l/m 0,00 h 0,65 h 0 W/m 0,9 km/h (0 Bft) 98,22 %
15.10.2020 01:00 8,4 C 6,8 C 6,7 C 93 % 1018,5 hPa 0,2 l/m 0,00 h 0,87 h 0 W/m 1,4 km/h (1 Bft) 97,59 %
15.10.2020 02:00 8,1 C 6,7 C 6,7 C 95 % 1018,5 hPa 0,0 l/m 0,00 h 0,07 h 0 W/m 1,0 km/h (0 Bft) 96,80 %
15.10.2020 03:00 7,8 C 6,7 C 6,7 C 95 % 1018,5 hPa 0,0 l/m 0,00 h 0,07 h 0 W/m 1,2 km/h (1 Bft) 97,33 %
15.10.2020 04:00 7,5 C 6,4 C 6,7 C 96 % 1018,3 hPa 0,0 l/m 0,00 h 0,00 h 0 W/m 1,8 km/h (1 Bft) 96,37 %
15.10.2020 05:00 7,3 C 6,1 C 6,7 C 96 % 1018,2 hPa 0,0 l/m 0,00 h 0,00 h 0 W/m 2,6 km/h (1 Bft) 97,64 %
15.10.2020 06:00 7,2 C 6,1 C 6,7 C 96 % 1018,4 hPa 0,0 l/m 0,00 h 0,00 h 0 W/m 4,0 km/h (1 Bft) 98,49 %
15.10.2020 07:00 7,1 C 6,1 C 6,7 C 95 % 1018,7 hPa 0,0 l/m 0,00 h 0,03 h 0 W/m 3,5 km/h (1 Bft) 97,19 %
15.10.2020 08:00 7,2 C 6,6 C 6,3 C 95 % 1018,9 hPa 0,0 l/m 0,00 h 0,13 h 19 W/m 5,3 km/h (1 Bft) 94,37 %
15.10.2020 09:00 7,7 C 7,9 C 6,6 C 95 % 1019,3 hPa 0,0 l/m 0,00 h 0,03 h 69 W/m 3,0 km/h (1 Bft) 96,44 %
15.10.2020 10:00 8,4 C 8,8 C 7,2 C 94 % 1019,7 hPa 0,0 l/m 0,00 h 0,00 h 69 W/m 1,0 km/h (0 Bft) 99,35 %
15.10.2020 11:00 9,1 C 9,5 C 7,2 C 92 % 1020,1 hPa 0,2 l/m 0,00 h 0,00 h 92 W/m 3,5 km/h (1 Bft) 97,09 %
15.10.2020 12:00 9,5 C 9,3 C 8,6 C 91 % 1020,4 hPa 0,0 l/m 0,00 h 0,07 h 66 W/m 2,5 km/h (1 Bft) 95,97 %
15.10.2020 13:00 9,6 C 9,4 C 9,1 C 91 % 1020,5 hPa 0,0 l/m 0,00 h 0,00 h 72 W/m 2,8 km/h (1 Bft) 98,36 %
15.10.2020 14:00 9,7 C 9,8 C 9,4 C 93 % 1020,2 hPa 0,0 l/m 0,00 h 0,00 h 97 W/m 3,2 km/h (1 Bft) 98,72 %
15.10.2020 15:00 10,2 C 10,2 C 9,8 C 92 % 1019,8 hPa 0,0 l/m 0,00 h 0,00 h 78 W/m 1,8 km/h (1 Bft) 96,13 %
15.10.2020 16:00 10,2 C 9,7 C 9,5 C 90 % 1020,0 hPa 0,0 l/m 0,00 h 0,00 h 41 W/m 2,6 km/h (1 Bft) 96,00 %
15.10.2020 17:00 9,9 C 9,1 C 9,0 C 90 % 1020,4 hPa 0,0 l/m 0,00 h 0,00 h 14 W/m 2,8 km/h (1 Bft) 98,90 %
15.10.2020 18:00 9,5 C 8,5 C 8,8 C 91 % 1020,6 hPa 0,0 l/m 0,00 h 0,00 h 5 W/m 0,9 km/h (0 Bft) 97,34 %
15.10.2020 19:00 9,3 C 8,5 C 8,7 C 92 % 1021,1 hPa 0,0 l/m 0,00 h 0,00 h 0 W/m 0,3 km/h (0 Bft) 96,33 %
15.10.2020 20:00 9,1 C 8,3 C 8,3 C 92 % 1021,4 hPa 0,0 l/m 0,00 h 0,00 h 0 W/m 0,4 km/h (0 Bft) 96,14 %
15.10.2020 21:00 9,0 C 8,3 C 8,3 C 92 % 1021,6 hPa 0,0 l/m 0,00 h 0,00 h 0 W/m 1,1 km/h (0 Bft) 96,55 %
15.10.2020 22:00 8,9 C 8,2 C 8,3 C 91 % 1021,6 hPa 0,0 l/m 0,00 h 0,00 h 0 W/m 1,0 km/h (0 Bft) 98,15 %
15.10.2020 23:00 8,6 C 7,8 C 7,9 C 91 % 1021,8 hPa 0,0 l/m 0,00 h 0,00 h 0 W/m 1,2 km/h (1 Bft) 97,59 %
16.10.2020 00:00 8,5 C 7,6 C 7,6 C 92 % 1021,8 hPa 0,0 l/m 0,00 h 0,00 h 0 W/m 1,1 km/h (0 Bft) 96,33 %
16.10.2020 01:00 7,9 C 6,2 C 6,2 C 91 % 1021,8 hPa 0,0 l/m 0,00 h 0,00 h 0 W/m 0,0 km/h (0 Bft) 97,80 %
16.10.2020 02:00 7,0 C 5,2 C 5,3 C 91 % 1022,1 hPa 0,0 l/m 0,00 h 0,00 h 0 W/m 0,0 km/h (0 Bft) 98,65 %
16.10.2020 03:00 6,1 C 4,5 C 4,6 C 92 % 1022,1 hPa 0,0 l/m 0,00 h 0,00 h 0 W/m 0,0 km/h (0 Bft) 99,43 %
16.10.2020 04:00 5,8 C 5,1 C 5,2 C 94 % 1021,9 hPa 0,0 l/m 0,00 h 0,00 h 0 W/m 0,0 km/h (0 Bft) 96,52 %
16.10.2020 05:00 6,2 C 6,1 C 6,1 C 96 % 1021,8 hPa 0,0 l/m 0,00 h 0,00 h 0 W/m 0,4 km/h (0 Bft) 96,15 %
16.10.2020 06:00 6,8 C 6,7 C 6,7 C 96 % 1022,0 hPa 0,0 l/m 0,00 h 0,00 h 0 W/m 2,2 km/h (1 Bft) 96,39 %
16.10.2020 07:00 7,0 C 6,7 C 7,0 C 97 % 1022,1 hPa 0,0 l/m 0,00 h 0,00 h 0 W/m 0,2 km/h (0 Bft) 97,05 %
16.10.2020 08:00 7,3 C 7,0 C 6,9 C 97 % 1022,4 hPa 0,0 l/m 0,00 h 0,00 h 11 W/m 0,2 km/h (0 Bft) 97,26 %
16.10.2020 09:00 7,7 C 8,1 C 7,0 C 97 % 1022,7 hPa 0,0 l/m 0,00 h 0,00 h 53 W/m 2,8 km/h (1 Bft) 95,43 %
16.10.2020 10:00 8,6 C 9,8 C 8,3 C 96 % 1023,0 hPa 0,0 l/m 0,03 h 0,00 h 121 W/m 1,9 km/h (1 Bft) 97,91 %
16.10.2020 11:00 9,7 C 10,8 C 9,1 C 92 % 1023,1 hPa 0,0 l/m 0,00 h 0,00 h 154 W/m 4,2 km/h (1 Bft) 98,63 %
16.10.2020 12:00 11,0 C 12,7 C 10,5 C 89 % 1022,9 hPa 0,0 l/m 0,23 h 0,00 h 220 W/m 7,4 km/h (2 Bft) 95,75 %
16.10.2020 13:00 11,6 C 11,6 C 10,0 C 85 % 1022,7 hPa 0,0 l/m 0,00 h 0,00 h 111 W/m 5,8 km/h (2 Bft) 98,29 %
16.10.2020 14:00 11,4 C 11,6 C 10,0 C 85 % 1022,3 hPa 0,0 l/m 0,00 h 0,00 h 105 W/m 4,9 km/h (1 Bft) 97,94 %
16.10.2020 15:00 11,3 C 11,1 C 9,5 C 84 % 1022,0 hPa 0,0 l/m 0,00 h 0,00 h 70 W/m 1,8 km/h (1 Bft) 97,79 %
16.10.2020 16:00 11,0 C 10,0 C 8,8 C 84 % 1022,0 hPa 0,0 l/m 0,00 h 0,00 h 21 W/m 0,6 km/h (0 Bft) 96,28 %
16.10.2020 17:00 10,4 C 9,4 C 8,4 C 86 % 1021,9 hPa 0,0 l/m 0,00 h 0,00 h 8 W/m 1,4 km/h (1 Bft) 98,01 %
16.10.2020 18:00 9,9 C 9,1 C 7,9 C 85 % 1022,2 hPa 0,0 l/m 0,00 h 0,00 h 5 W/m 2,7 km/h (1 Bft) 97,85 %
16.10.2020 19:00 9,5 C 8,4 C 7,3 C 85 % 1022,4 hPa 0,0 l/m 0,00 h 0,00 h 0 W/m 0,2 km/h (0 Bft) 98,14 %
16.10.2020 20:00 8,9 C 7,9 C 6,7 C 85 % 1022,7 hPa 0,0 l/m 0,00 h 0,00 h 0 W/m 0,0 km/h (0 Bft) 95,53 %
16.10.2020 21:00 8,5 C 7,8 C 6,7 C 87 % 1022,4 hPa 0,0 l/m 0,00 h 0,00 h 0 W/m 2,4 km/h (1 Bft) 95,32 %
16.10.2020 22:00 8,5 C 7,8 C 6,7 C 89 % 1022,5 hPa 0,0 l/m 0,00 h 0,00 h 0 W/m 1,9 km/h (1 Bft) 97,07 %
16.10.2020 23:00 8,4 C 7,7 C 6,6 C 89 % 1022,4 hPa 0,0 l/m 0,00 h 0,00 h 0 W/m 0,0 km/h (0 Bft) 97,51 %
17.10.2020 00:00 8,2 C 7,2 C 6,1 C 90 % 1022,2 hPa 0,0 l/m 0,00 h 0,00 h 0 W/m 0,0 km/h (0 Bft) 95,30 %
17.10.2020 01:00 7,9 C 7,1 C 6,0 C 90 % 1021,9 hPa 0,0 l/m 0,00 h 0,00 h 0 W/m 0,0 km/h (0 Bft) 97,30 %
17.10.2020 02:00 7,6 C 6,5 C 5,4 C 90 % 1021,7 hPa 0,0 l/m 0,00 h 0,00 h 0 W/m 0,0 km/h (0 Bft) 97,85 %
17.10.2020 03:00 7,1 C 5,9 C 4,7 C 91 % 1021,4 hPa 0,0 l/m 0,00 h 0,00 h 0 W/m 0,0 km/h (0 Bft) 99,30 %
17.10.2020 04:00 6,6 C 5,6 C 4,5 C 92 % 1021,0 hPa 0,0 l/m 0,00 h 0,00 h 0 W/m 0,0 km/h (0 Bft) 95,42 %
17.10.2020 05:00 6,4 C 5,6 C 4,8 C 93 % 1021,0 hPa 0,0 l/m 0,00 h 0,00 h 0 W/m 0,0 km/h (0 Bft) 97,22 %
17.10.2020 06:00 6,4 C 5,7 C 5,0 C 94 % 1020,9 hPa 0,0 l/m 0,00 h 0,00 h 0 W/m 0,0 km/h (0 Bft) 98,29 %
17.10.2020 07:00 6,4 C 5,9 C 4,9 C 94 % 1020,8 hPa 0,0 l/m 0,00 h 0,00 h 0 W/m 0,0 km/h (0 Bft) 95,75 %
17.10.2020 08:00 6,5 C 6,1 C 5,1 C 95 % 1021,0 hPa 0,0 l/m 0,00 h 0,00 h 8 W/m 0,0 km/h (0 Bft) 98,78 %
17.10.2020 09:00 6,9 C 7,1 C 5,9 C 96 % 1021,1 hPa 0,0 l/m 0,00 h 0,00 h 41 W/m 0,0 km/h (0 Bft) 94,73 %
17.10.2020 10:00 7,8 C 8,8 C 7,2 C 96 % 1021,3 hPa 0,0 l/m 0,00 h 0,00 h 99 W/m 0,0 km/h (0 Bft) 97,11 %
17.10.2020 11:00 9,1 C 10,5 C 8,5 C 95 % 1021,3 hPa 0,0 l/m 0,00 h 0,00 h 155 W/m 0,2 km/h (0 Bft) 99,64 %
17.10.2020 12:00 10,3 C 12,6 C 9,7 C 90 % 1021,2 hPa 0,0 l/m 0,27 h 0,00 h 257 W/m 3,0 km/h (1 Bft) 95,18 %
17.10.2020 13:00 11,8 C 13,3 C 10,3 C 83 % 1021,0 hPa 0,0 l/m 0,50 h 0,00 h 223 W/m 7,6 km/h (2 Bft) 97,31 %
17.10.2020 14:00 11,4 C 11,6 C 9,4 C 82 % 1020,9 hPa 0,0 l/m 0,27 h 0,00 h 136 W/m 3,1 km/h (1 Bft) 97,82 %
17.10.2020 15:00 12,0 C 12,7 C 10,1 C 81 % 1020,8 hPa 0,0 l/m 0,33 h 0,00 h 152 W/m 4,1 km/h (1 Bft) 97,86 %
17.10.2020 16:00 11,4 C 10,8 C 9,4 C 82 % 1020,7 hPa 0,0 l/m 0,00 h 0,00 h 77 W/m 1,3 km/h (1 Bft) 98,86 %
17.10.2020 17:00 10,9 C 10,2 C 8,7 C 84 % 1020,6 hPa 0,0 l/m 0,00 h 0,00 h 45 W/m 0,3 km/h (0 Bft) 93,36 %
17.10.2020 18:00 10,1 C 8,6 C 7,4 C 86 % 1020,8 hPa 0,0 l/m 0,00 h 0,00 h 7 W/m 0,0 km/h (0 Bft) 97,62 %
17.10.2020 19:00 9,5 C 8,3 C 7,2 C 89 % 1021,2 hPa 0,0 l/m 0,00 h 0,00 h 0 W/m 0,0 km/h (0 Bft) 96,34 %
17.10.2020 20:00 9,0 C 7,8 C 6,7 C 91 % 1021,6 hPa 0,0 l/m 0,00 h 0,00 h 0 W/m 0,0 km/h (0 Bft) 96,79 %
17.10.2020 21:00 8,5 C 7,2 C 6,1 C 92 % 1021,6 hPa 0,0 l/m 0,00 h 0,00 h 0 W/m 0,0 km/h (0 Bft) 99,58 %
17.10.2020 22:00 8,0 C 7,0 C 5,9 C 92 % 1021,8 hPa 0,0 l/m 0,00 h 0,00 h 0 W/m 0,0 km/h (0 Bft) 94,55 %
17.10.2020 23:00 7,8 C 7,2 C 6,1 C 93 % 1021,9 hPa 0,0 l/m 0,00 h 0,00 h 0 W/m 0,0 km/h (0 Bft) 96,61 %
18.10.2020 00:00 7,7 C 6,8 C 5,9 C 94 % 1021,9 hPa 0,0 l/m 0,00 h 0,00 h 0 W/m 0,0 km/h (0 Bft) 97,90 %
18.10.2020 01:00 7,5 C 6,4 C 5,3 C 94 % 1022,0 hPa 0,0 l/m 0,00 h 0,00 h 0 W/m 0,0 km/h (0 Bft) 98,06 %
18.10.2020 02:00 6,7 C 5,0 C 3,9 C 93 % 1022,0 hPa 0,0 l/m 0,00 h 0,00 h 0 W/m 0,0 km/h (0 Bft) 94,47 %
18.10.2020 03:00 5,9 C 4,5 C 3,5 C 93 % 1021,9 hPa 0,0 l/m 0,00 h 0,00 h 0 W/m 0,0 km/h (0 Bft) 96,57 %
18.10.2020 04:00 5,2 C 4,2 C 3,0 C 94 % 1021,9 hPa 0,0 l/m 0,00 h 0,00 h 0 W/m 0,0 km/h (0 Bft) 96,04 %
18.10.2020 05:00 5,3 C 4,9 C 3,7 C 95 % 1021,9 hPa 0,0 l/m 0,00 h 0,00 h 0 W/m 0,0 km/h (0 Bft) 97,09 %
18.10.2020 06:00 5,8 C 5,4 C 4,3 C 97 % 1021,9 hPa 0,0 l/m 0,00 h 0,00 h 0 W/m 0,0 km/h (0 Bft) 98,68 %
18.10.2020 07:00 5,6 C 4,6 C 3,4 C 97 % 1021,9 hPa 0,0 l/m 0,00 h 0,00 h 0 W/m 0,0 km/h (0 Bft) 96,62 %
18.10.2020 08:00 5,4 C 5,3 C 4,1 C 97 % 1022,1 hPa 0,0 l/m 0,20 h 0,00 h 25 W/m 0,0 km/h (0 Bft) 95,20 %
18.10.2020 09:00 6,2 C 6,7 C 5,6 C 98 % 1022,7 hPa 0,0 l/m 0,00 h 0,00 h 52 W/m 0,3 km/h (0 Bft) 97,72 %
18.10.2020 10:00 7,2 C 8,3 C 7,0 C 98 % 1022,8 hPa 0,0 l/m 0,00 h 0,00 h 98 W/m 1,3 km/h (1 Bft) 98,57 %
18.10.2020 11:00 8,6 C 9,4 C 8,3 C 97 % 1022,9 hPa 0,0 l/m 0,00 h 0,00 h 132 W/m 12,3 km/h (3 Bft) 96,96 %
18.10.2020 12:00 9,6 C 10,0 C 8,7 C 92 % 1023,1 hPa 0,0 l/m 0,00 h 0,00 h 102 W/m 5,8 km/h (2 Bft) 95,27 %
18.10.2020 13:00 10,3 C 10,5 C 9,1 C 88 % 1022,8 hPa 0,0 l/m 0,00 h 0,00 h 117 W/m 7,7 km/h (2 Bft) 98,29 %
18.10.2020 14:00 10,9 C 11,4 C 9,8 C 87 % 1022,4 hPa 0,0 l/m 0,00 h 0,00 h 140 W/m 8,5 km/h (2 Bft) 99,22 %
18.10.2020 15:00 11,5 C 11,8 C 10,1 C 87 % 1022,2 hPa 0,0 l/m 0,00 h 0,00 h 127 W/m 7,0 km/h (2 Bft) 94,73 %
18.10.2020 16:00 12,0 C 12,3 C 10,4 C 86 % 1021,9 hPa 0,0 l/m 0,17 h 0,00 h 129 W/m 8,9 km/h (2 Bft) 99,01 %
18.10.2020 17:00 11,9 C 11,2 C 9,6 C 86 % 1021,6 hPa 0,0 l/m 0,00 h 0,00 h 53 W/m 4,1 km/h (1 Bft) 97,94 %
18.10.2020 18:00 11,2 C 10,2 C 8,7 C 87 % 1021,9 hPa 0,0 l/m 0,00 h 0,00 h 8 W/m 0,0 km/h (0 Bft) 94,00 %
18.10.2020 19:00 10,8 C 9,8 C 8,4 C 89 % 1022,3 hPa 0,0 l/m 0,00 h 0,00 h 0 W/m 0,0 km/h (0 Bft) 99,07 %
18.10.2020 20:00 10,5 C 9,6 C 8,3 C 90 % 1022,5 hPa 0,0 l/m 0,00 h 0,00 h 0 W/m 0,0 km/h (0 Bft) 99,35 %
18.10.2020 21:00 10,4 C 9,9 C 8,7 C 92 % 1022,4 hPa 0,0 l/m 0,00 h 0,00 h 0 W/m 2,1 km/h (1 Bft) 96,15 %
18.10.2020 22:00 10,3 C 9,3 C 8,2 C 92 % 1022,7 hPa 0,0 l/m 0,00 h 0,00 h 0 W/m 0,0 km/h (0 Bft) 97,53 %
18.10.2020 23:00 10,0 C 9,2 C 8,2 C 94 % 1022,8 hPa 0,0 l/m 0,00 h 0,00 h 0 W/m 0,1 km/h (0 Bft) 96,95 %
Min-Datum _ 18.10.20 18.10.20 18.10.20 12.10.20 13.10.20 - - - - 12.10.20 16.10.20
_ Min-Zeit 04:28 04:20 03:56 15:00 14:38 - - - - 00:00 21:18
Minimum _ 5,1 C 3,3 C 2,8 C 72 % 1012,6 hPa - - - - 0,0 km/h (0 Bft) 23,08 %
Max-Datum _ 12.10.20 12.10.20 14.10.20 12.10.20 16.10.20 15.10.20 12.10.20 15.10.20 12.10.20 13.10.20 12.10.20
_ Max-Zeit 14:50 13:44 11:26 09:36 11:22 00:54 12:15 00:12 13:46 11:06 00:44
Maximum _ 15,4 C 22,2 C 17,8 C 99 % 1023,2 hPa 0,2 l/m 0,08 h 0,03 h 686 W/m 25,7 km/h
O (4 Bft)
100,00 %
Durchschnitt _ 8,9 C 8,5 C 8,2 C 91 % 1019,5 hPa #0,6 l/m #11:54 h #1:55 h 113 W/m 3,0 km/h (1 Bft) 97,10 %
© 2020 W. Hausmann